createdAt,value
2018-07-05T00:00:02.058Z,2.40
2018-07-05T00:02:38.725Z,2.53
2018-07-05T00:05:15.921Z,2.67
2018-07-05T00:07:52.434Z,2.63
2018-07-05T00:10:29.403Z,2.40
2018-07-05T00:13:05.891Z,2.60
2018-07-05T00:15:42.741Z,2.50
2018-07-05T00:18:19.967Z,2.77
2018-07-05T00:20:56.433Z,2.50
2018-07-05T00:23:33.333Z,2.70
2018-07-05T00:26:09.928Z,2.50
2018-07-05T00:28:49.007Z,2.50
2018-07-05T00:31:22.619Z,2.70
2018-07-05T00:33:56.319Z,2.40
2018-07-05T00:36:30.023Z,2.77
2018-07-05T00:39:04.080Z,2.47
2018-07-05T00:41:37.706Z,2.77
2018-07-05T00:44:11.318Z,2.50
2018-07-05T00:46:45.022Z,2.30
2018-07-05T00:49:19.061Z,2.53
2018-07-05T00:51:52.588Z,2.40
2018-07-05T00:54:26.248Z,2.50
2018-07-05T00:56:59.831Z,2.43
2018-07-05T00:59:33.498Z,2.20
2018-07-05T01:02:07.198Z,2.30
2018-07-05T01:04:40.963Z,2.70
2018-07-05T01:07:14.535Z,2.57
2018-07-05T01:09:48.175Z,2.50
2018-07-05T01:12:21.734Z,2.63
2018-07-05T01:14:55.322Z,2.30
2018-07-05T01:17:28.862Z,2.37
2018-07-05T01:20:02.451Z,2.40
2018-07-05T01:22:35.963Z,2.47
2018-07-05T01:25:09.509Z,2.30
2018-07-05T01:27:43.146Z,2.30
2018-07-05T01:30:17.924Z,2.33
2018-07-05T01:32:51.588Z,2.67
2018-07-05T01:35:25.326Z,2.30
2018-07-05T01:37:58.880Z,2.13
2018-07-05T01:40:32.479Z,2.20
2018-07-05T01:43:05.985Z,2.30
2018-07-05T01:45:43.494Z,2.00
2018-07-05T01:48:17.219Z,2.30
2018-07-05T01:50:50.904Z,2.23
2018-07-05T01:53:24.606Z,2.30
2018-07-05T01:55:58.314Z,2.40
2018-07-05T01:58:32.002Z,2.20
2018-07-05T02:01:05.723Z,2.20
2018-07-05T02:03:39.413Z,2.40
2018-07-05T02:06:12.979Z,2.30
2018-07-05T02:08:46.600Z,2.30
2018-07-05T02:11:20.192Z,2.20
2018-07-05T02:13:53.826Z,2.23
2018-07-05T02:16:27.398Z,2.30
2018-07-05T02:19:00.986Z,2.30
2018-07-05T02:21:34.405Z,2.30
2018-07-05T02:24:08.126Z,2.40
2018-07-05T02:26:41.820Z,2.40
2018-07-05T02:29:15.457Z,2.20
2018-07-05T02:31:49.125Z,2.20
2018-07-05T02:34:22.971Z,2.50
2018-07-05T02:36:58.818Z,2.10
2018-07-05T02:39:37.893Z,2.37
2018-07-05T02:42:11.282Z,2.27
2018-07-05T02:44:44.707Z,2.00
2018-07-05T02:47:18.119Z,2.00
2018-07-05T02:49:51.922Z,2.30
2018-07-05T02:52:25.491Z,2.30
2018-07-05T02:54:59.059Z,2.40
2018-07-05T02:57:32.607Z,2.40
2018-07-05T03:00:06.198Z,2.17
2018-07-05T03:02:39.694Z,2.30
2018-07-05T03:05:13.322Z,2.33
2018-07-05T03:07:46.878Z,1.80
2018-07-05T03:10:20.399Z,2.00
2018-07-05T03:12:53.983Z,2.00
2018-07-05T03:15:27.926Z,2.00
2018-07-05T03:18:01.570Z,2.10
2018-07-05T03:20:35.371Z,2.33
2018-07-05T03:23:09.028Z,1.83
2018-07-05T03:25:42.615Z,1.90
2018-07-05T03:28:16.347Z,1.90
2018-07-05T03:30:49.920Z,2.00
2018-07-05T03:33:23.572Z,2.03
2018-07-05T03:35:57.208Z,1.90
2018-07-05T03:38:30.706Z,2.13
2018-07-05T03:41:04.310Z,1.80
2018-07-05T03:43:37.926Z,1.77
2018-07-05T03:46:11.556Z,2.00
2018-07-05T03:48:45.257Z,1.93
2018-07-05T03:51:18.935Z,2.00
2018-07-05T03:53:52.647Z,1.97
2018-07-05T03:56:26.365Z,2.03
2018-07-05T03:58:59.874Z,1.80
2018-07-05T04:01:33.375Z,1.77
2018-07-05T04:04:06.919Z,1.90
2018-07-05T04:06:40.425Z,1.90
2018-07-05T04:09:14.061Z,2.00
2018-07-05T04:11:47.658Z,1.90
2018-07-05T04:14:21.365Z,1.80
2018-07-05T04:16:55.046Z,1.57
2018-07-05T04:19:28.773Z,1.70
2018-07-05T04:22:02.341Z,2.03
2018-07-05T04:24:35.958Z,1.93
2018-07-05T04:27:09.674Z,1.90
2018-07-05T04:29:43.238Z,1.93
2018-07-05T04:32:16.794Z,2.00
2018-07-05T04:34:50.322Z,2.03
2018-07-05T04:37:23.939Z,1.57
2018-07-05T04:39:57.494Z,2.20
2018-07-05T04:42:31.122Z,2.00
2018-07-05T04:45:04.711Z,2.00
2018-07-05T04:47:38.345Z,1.70
2018-07-05T04:50:11.838Z,1.90
2018-07-05T04:52:45.463Z,1.87
2018-07-05T04:55:19.049Z,1.90
2018-07-05T04:57:52.634Z,2.20
2018-07-05T05:00:26.248Z,2.00
2018-07-05T05:02:59.872Z,2.20
2018-07-05T05:05:33.410Z,2.00
2018-07-05T05:08:07.088Z,2.10
2018-07-05T05:10:40.747Z,2.00
2018-07-05T05:13:14.602Z,2.03
2018-07-05T05:15:48.074Z,1.80
2018-07-05T05:18:21.765Z,2.10
2018-07-05T05:20:55.450Z,2.33
2018-07-05T05:23:29.184Z,2.40
2018-07-05T05:26:02.873Z,2.00
2018-07-05T05:28:36.583Z,2.07
2018-07-05T05:31:10.439Z,2.20
2018-07-05T05:33:44.099Z,2.10
2018-07-05T05:36:17.688Z,2.33
2018-07-05T05:38:51.306Z,1.93
2018-07-05T05:41:24.891Z,2.30
2018-07-05T05:43:58.542Z,2.17
2018-07-05T05:46:32.046Z,2.30
2018-07-05T05:49:05.697Z,2.10
2018-07-05T05:51:39.412Z,2.03
2018-07-05T05:54:13.126Z,2.33
2018-07-05T05:56:46.959Z,2.03
2018-07-05T05:59:20.505Z,2.33
2018-07-05T06:01:54.146Z,2.20
2018-07-05T06:04:27.714Z,1.93
2018-07-05T06:07:01.255Z,2.40
2018-07-05T06:09:34.807Z,2.90
2018-07-05T06:12:08.399Z,2.13
2018-07-05T06:14:41.976Z,2.73
2018-07-05T06:17:15.494Z,2.43
2018-07-05T06:19:49.096Z,2.40
2018-07-05T06:22:22.704Z,2.50
2018-07-05T06:24:56.403Z,2.33
2018-07-05T06:27:30.260Z,2.37
2018-07-05T06:30:03.941Z,2.33
2018-07-05T06:32:37.659Z,2.60
2018-07-05T06:35:11.287Z,2.50
2018-07-05T06:37:44.807Z,2.17
2018-07-05T06:40:18.399Z,2.20
2018-07-05T06:42:52.022Z,2.40
2018-07-05T06:45:25.626Z,2.27
2018-07-05T06:47:59.218Z,2.03
2018-07-05T06:50:32.967Z,2.30
2018-07-05T06:53:06.719Z,2.47
2018-07-05T06:55:40.347Z,2.40
2018-07-05T06:58:14.134Z,2.90
2018-07-05T07:00:47.912Z,2.57
2018-07-05T07:05:43.154Z,2.37
2018-07-05T07:08:16.753Z,2.23
2018-07-05T07:10:50.370Z,2.50
2018-07-05T07:13:23.976Z,2.60
2018-07-05T07:15:57.600Z,2.50
2018-07-05T07:18:31.100Z,2.40
2018-07-05T07:21:04.559Z,2.40
2018-07-05T07:23:38.171Z,2.40
2018-07-05T07:26:11.754Z,2.37
2018-07-05T07:28:45.390Z,2.10
2018-07-05T07:31:19.021Z,2.00
2018-07-05T07:33:52.538Z,2.40
2018-07-05T07:36:26.095Z,2.07
2018-07-05T07:38:59.683Z,2.17
2018-07-05T07:41:33.275Z,2.13
2018-07-05T07:44:00.760Z,2.30
2018-07-05T07:49:14.524Z,2.20
2018-07-05T07:51:42.008Z,2.60
2018-07-05T07:54:09.667Z,2.30
2018-07-05T07:56:37.178Z,2.30
2018-07-05T07:59:04.661Z,2.13
2018-07-05T08:01:32.148Z,2.50
2018-07-05T08:03:59.626Z,2.47
2018-07-05T08:06:27.111Z,2.00
2018-07-05T08:08:54.589Z,2.00
2018-07-05T08:11:22.090Z,2.00
2018-07-05T08:13:49.859Z,2.33
2018-07-05T08:16:17.339Z,1.90
2018-07-05T08:18:44.818Z,1.90
2018-07-05T08:21:12.311Z,1.90
2018-07-05T08:23:39.783Z,2.10
2018-07-05T08:26:07.270Z,2.10
2018-07-05T08:28:34.762Z,1.67
2018-07-05T08:31:04.397Z,2.00
2018-07-05T08:33:31.878Z,2.10
2018-07-05T08:35:59.362Z,1.93
2018-07-05T08:38:26.866Z,2.03
2018-07-05T08:40:54.359Z,2.10
2018-07-05T08:43:21.833Z,2.10
2018-07-05T08:45:49.310Z,1.93
2018-07-05T08:48:16.789Z,2.17
2018-07-05T08:50:44.370Z,2.17
2018-07-05T08:53:11.855Z,1.90
2018-07-05T08:55:39.335Z,2.10
2018-07-05T08:58:06.823Z,2.03
2018-07-05T09:00:34.315Z,2.30
2018-07-05T09:03:01.814Z,2.30
2018-07-05T09:05:29.310Z,2.80
2018-07-05T09:07:56.790Z,2.13
2018-07-05T09:10:24.271Z,2.20
2018-07-05T09:12:51.747Z,2.13
2018-07-05T09:15:19.235Z,2.37
2018-07-05T09:17:46.945Z,2.30
2018-07-05T09:20:14.239Z,2.30
2018-07-05T09:22:41.726Z,2.10
2018-07-05T09:25:09.214Z,2.10
2018-07-05T09:27:36.706Z,1.90
2018-07-05T09:30:04.230Z,1.90
2018-07-05T09:32:31.726Z,1.80
2018-07-05T09:34:59.216Z,1.70
2018-07-05T09:37:26.741Z,1.80
2018-07-05T09:39:54.211Z,1.80
2018-07-05T09:42:21.743Z,1.60
2018-07-05T09:44:49.287Z,2.00
2018-07-05T09:47:16.774Z,1.90
2018-07-05T09:49:44.310Z,1.70
2018-07-05T09:52:11.791Z,1.90
2018-07-05T09:54:39.311Z,1.70
2018-07-05T09:57:06.798Z,1.80
2018-07-05T09:59:34.299Z,1.77
2018-07-05T10:02:01.783Z,1.80
2018-07-05T10:04:29.274Z,1.80
2018-07-05T10:06:56.783Z,1.53
2018-07-05T10:09:24.287Z,2.10
2018-07-05T10:11:52.082Z,1.80
2018-07-05T10:14:19.557Z,1.57
2018-07-05T10:16:47.071Z,2.13
2018-07-05T10:19:14.558Z,1.70
2018-07-05T10:21:42.044Z,1.53
2018-07-05T10:24:09.532Z,1.50
2018-07-05T10:26:37.014Z,1.63
2018-07-05T10:29:10.663Z,1.80
2018-07-05T10:31:44.367Z,1.70
2018-07-05T10:34:11.863Z,1.60
2018-07-05T10:36:39.410Z,1.60
2018-07-05T10:39:06.973Z,1.90
2018-07-05T10:41:40.603Z,1.37
2018-07-05T10:44:14.086Z,1.77
2018-07-05T10:46:47.602Z,1.67
2018-07-05T10:49:21.168Z,1.50
2018-07-05T10:51:54.962Z,1.80
2018-07-05T10:54:28.377Z,1.50
2018-07-05T10:57:01.910Z,1.57
2018-07-05T10:59:35.687Z,1.50
2018-07-05T11:02:09.279Z,1.57
2018-07-05T11:04:42.813Z,1.33
2018-07-05T11:07:16.371Z,1.80
2018-07-05T11:12:22.246Z,1.40
2018-07-05T11:14:55.783Z,1.40
2018-07-05T11:17:29.443Z,1.47
2018-07-05T11:20:02.962Z,1.33
2018-07-05T11:22:36.649Z,1.60
2018-07-05T11:25:10.197Z,1.50
2018-07-05T11:27:43.844Z,1.30
2018-07-05T11:30:17.621Z,1.70
2018-07-05T11:32:51.194Z,1.47
2018-07-05T11:35:24.689Z,1.60
2018-07-05T11:37:58.297Z,1.40
2018-07-05T11:40:31.999Z,1.53
2018-07-05T11:43:05.631Z,1.40
2018-07-05T11:45:39.208Z,1.60
2018-07-05T11:48:12.754Z,1.43
2018-07-05T11:50:46.294Z,1.47
2018-07-05T11:53:20.357Z,1.33
2018-07-05T11:55:54.028Z,1.50
2018-07-05T12:00:53.758Z,1.50
2018-07-05T12:03:27.395Z,1.50
2018-07-05T12:06:00.908Z,1.73
2018-07-05T12:08:34.759Z,1.40
2018-07-05T12:13:36.515Z,1.50
2018-07-05T12:16:10.034Z,1.60
2018-07-05T12:18:43.587Z,1.40
2018-07-05T12:21:17.043Z,1.53
2018-07-05T12:23:51.018Z,1.50
2018-07-05T12:26:24.522Z,1.50
2018-07-05T12:28:58.244Z,1.40
2018-07-05T12:31:31.841Z,1.60
2018-07-05T12:34:05.538Z,1.40
2018-07-05T12:36:39.189Z,1.50
2018-07-05T12:39:12.855Z,1.60
2018-07-05T12:41:46.567Z,1.60
2018-07-05T12:44:20.262Z,1.63
2018-07-05T12:46:53.911Z,1.50
2018-07-05T12:49:27.833Z,1.50
2018-07-05T12:52:01.409Z,1.60
2018-07-05T12:54:34.952Z,1.70
2018-07-05T12:57:08.670Z,1.50
2018-07-05T12:59:42.226Z,1.43
2018-07-05T13:02:15.775Z,1.70
2018-07-05T13:04:49.532Z,1.37
2018-07-05T13:07:23.027Z,1.60
2018-07-05T13:09:56.731Z,1.50
2018-07-05T13:12:30.478Z,1.70
2018-07-05T13:15:04.173Z,1.53
2018-07-05T13:17:37.782Z,1.50
2018-07-05T13:20:11.426Z,1.33
2018-07-05T13:22:45.084Z,1.57
2018-07-05T13:27:54.320Z,1.70
2018-07-05T13:30:27.835Z,1.60
2018-07-05T13:33:01.606Z,1.47
2018-07-05T13:35:35.314Z,1.90
2018-07-05T13:38:08.905Z,1.80
2018-07-05T13:40:42.399Z,1.70
2018-07-05T13:43:15.954Z,1.73
2018-07-05T13:45:50.067Z,1.60
2018-07-05T13:48:23.611Z,1.50
2018-07-05T13:50:57.167Z,1.60
2018-07-05T13:53:30.704Z,1.60
2018-07-05T13:56:04.439Z,1.70
2018-07-05T13:58:38.102Z,1.90
2018-07-05T14:01:11.928Z,1.57
2018-07-05T14:03:45.512Z,1.70
2018-07-05T14:06:19.180Z,1.40
2018-07-05T14:08:52.878Z,1.53
2018-07-05T14:11:27.230Z,1.60
2018-07-05T14:14:00.947Z,1.50
2018-07-05T14:16:34.608Z,1.53
2018-07-05T14:19:08.303Z,1.80
2018-07-05T14:21:41.908Z,1.60
2018-07-05T14:24:15.610Z,1.80
2018-07-05T14:26:49.630Z,1.50
2018-07-05T14:29:23.215Z,1.37
2018-07-05T14:31:57.122Z,1.60
2018-07-05T14:34:30.844Z,1.47
2018-07-05T14:37:04.531Z,1.50
2018-07-05T14:39:38.263Z,1.50
2018-07-05T14:42:11.966Z,1.27
2018-07-05T14:44:45.674Z,1.30
2018-07-05T14:47:19.234Z,1.00
2018-07-05T14:49:52.842Z,1.10
2018-07-05T14:52:26.476Z,1.30
2018-07-05T14:55:00.048Z,1.17
2018-07-05T14:57:33.696Z,1.30
2018-07-05T15:00:07.265Z,1.23
2018-07-05T15:02:40.782Z,1.20
2018-07-05T15:05:14.395Z,1.40
2018-07-05T15:07:48.026Z,1.40
2018-07-05T15:10:21.730Z,1.50
2018-07-05T15:12:55.743Z,1.43
2018-07-05T15:15:29.398Z,1.67
2018-07-05T15:18:02.976Z,1.60
2018-07-05T15:20:36.748Z,1.77
2018-07-05T15:23:10.356Z,1.50
2018-07-05T15:25:43.948Z,2.00
2018-07-05T15:28:17.593Z,1.57
2018-07-05T15:30:51.184Z,1.53
2018-07-05T15:33:24.793Z,1.67
2018-07-05T15:35:58.331Z,1.43
2018-07-05T15:38:32.093Z,1.40
2018-07-05T15:41:05.907Z,1.73
2018-07-05T15:43:39.395Z,1.50
2018-07-05T15:46:13.152Z,1.60
2018-07-05T15:48:46.721Z,1.53
2018-07-05T15:51:20.363Z,1.60
2018-07-05T15:53:54.025Z,1.67
2018-07-05T15:56:27.627Z,2.30
2018-07-05T15:59:01.226Z,1.67
2018-07-05T16:01:34.796Z,1.47
2018-07-05T16:04:08.343Z,1.50
2018-07-05T16:06:41.790Z,1.40
2018-07-05T16:11:47.081Z,1.30
2018-07-05T16:14:20.801Z,1.33
2018-07-05T16:17:00.896Z,1.40
2018-07-05T16:19:34.569Z,1.40
2018-07-05T16:22:08.319Z,1.50
2018-07-05T16:24:42.111Z,1.67
2018-07-05T16:29:40.957Z,1.70
2018-07-05T16:32:14.500Z,1.40
2018-07-05T16:34:48.073Z,1.60
2018-07-05T16:37:21.767Z,1.60
2018-07-05T16:39:55.360Z,1.77
2018-07-05T16:42:29.027Z,2.13
2018-07-05T16:45:02.628Z,1.70
2018-07-05T16:47:36.149Z,1.70
2018-07-05T16:50:09.668Z,1.57
2018-07-05T16:52:43.205Z,1.67
2018-07-05T16:55:16.774Z,1.47
2018-07-05T16:57:50.671Z,1.70
2018-07-05T17:00:24.271Z,1.50
2018-07-05T17:02:58.079Z,1.50
2018-07-05T17:05:31.673Z,1.60
2018-07-05T17:08:05.377Z,1.40
2018-07-05T17:10:39.002Z,1.30
2018-07-05T17:13:12.734Z,1.60
2018-07-05T17:15:46.426Z,1.40
2018-07-05T17:18:20.196Z,1.23
2018-07-05T17:20:53.791Z,1.40
2018-07-05T17:23:27.397Z,1.37
2018-07-05T17:26:01.116Z,1.30
2018-07-05T17:28:34.823Z,1.37
2018-07-05T17:31:08.506Z,1.30
2018-07-05T17:33:42.247Z,1.40
2018-07-05T17:36:16.044Z,1.40
2018-07-05T17:41:19.468Z,1.30
2018-07-05T17:43:53.192Z,1.40
2018-07-05T17:46:26.666Z,1.60
2018-07-05T17:49:00.190Z,1.10
2018-07-05T17:51:34.018Z,1.23
2018-07-05T17:56:39.302Z,1.23
2018-07-05T17:59:12.910Z,1.60
2018-07-05T18:01:46.537Z,1.30
2018-07-05T18:04:20.264Z,1.30
2018-07-05T18:06:54.002Z,1.17
2018-07-05T18:09:27.599Z,1.20
2018-07-05T18:12:01.252Z,1.10
2018-07-05T18:14:34.863Z,1.20
2018-07-05T18:17:08.708Z,1.13
2018-07-05T18:19:42.414Z,1.33
2018-07-05T18:24:56.836Z,1.20
2018-07-05T18:27:30.428Z,1.10
2018-07-05T18:30:04.641Z,1.20
2018-07-05T18:32:38.204Z,1.10
2018-07-05T18:35:11.769Z,1.10
2018-07-05T18:37:45.681Z,1.20
2018-07-05T18:40:21.257Z,0.93
2018-07-05T18:42:55.059Z,1.27
2018-07-05T18:45:28.784Z,1.07
2018-07-05T18:48:02.612Z,1.07
2018-07-05T18:50:36.400Z,0.93
2018-07-05T18:53:10.080Z,1.20
2018-07-05T18:55:43.797Z,1.10
2018-07-05T18:58:17.389Z,1.20
2018-07-05T19:00:51.186Z,1.37
2018-07-05T19:03:24.760Z,1.00
2018-07-05T19:05:58.352Z,1.30
2018-07-05T19:08:32.041Z,1.40
2018-07-05T19:11:05.688Z,1.50
2018-07-05T19:13:39.442Z,1.03
2018-07-05T19:16:13.326Z,1.43
2018-07-05T19:18:46.926Z,1.70
2018-07-05T19:21:20.542Z,1.50
2018-07-05T19:23:54.046Z,1.60
2018-07-05T19:26:27.911Z,1.47
2018-07-05T19:29:01.716Z,1.60
2018-07-05T19:31:35.387Z,1.70
2018-07-05T19:34:09.089Z,1.70
2018-07-05T19:36:42.770Z,1.70
2018-07-05T19:39:16.394Z,1.60
2018-07-05T19:41:49.971Z,1.80
2018-07-05T19:44:23.879Z,1.80
2018-07-05T19:46:57.545Z,1.90
2018-07-05T19:49:31.251Z,1.83
2018-07-05T19:52:04.855Z,1.90
2018-07-05T19:54:38.528Z,1.97
2018-07-05T19:57:12.332Z,1.80
2018-07-05T20:02:29.714Z,2.20
2018-07-05T20:05:03.600Z,2.07
2018-07-05T20:07:37.504Z,2.00
2018-07-05T20:10:11.201Z,1.90
2018-07-05T20:12:45.010Z,2.50
2018-07-05T20:15:18.659Z,2.30
2018-07-05T20:17:52.523Z,2.40
2018-07-05T20:20:26.192Z,2.40
2018-07-05T20:22:59.930Z,2.33
2018-07-05T20:25:33.530Z,2.27
2018-07-05T20:28:07.290Z,2.60
2018-07-05T20:30:41.207Z,2.47
2018-07-05T20:33:14.784Z,2.20
2018-07-05T20:35:48.676Z,2.40
2018-07-05T20:38:22.523Z,2.43
2018-07-05T20:40:56.275Z,2.50
2018-07-05T20:43:29.916Z,2.20
2018-07-05T20:46:04.047Z,2.37
2018-07-05T20:48:37.777Z,2.50
2018-07-05T20:51:11.502Z,2.53
2018-07-05T20:53:45.186Z,2.80
2018-07-05T20:56:18.802Z,2.77
2018-07-05T20:58:52.465Z,2.67
2018-07-05T21:01:26.023Z,2.60
2018-07-05T21:03:59.662Z,2.40
2018-07-05T21:06:33.355Z,2.47
2018-07-05T21:09:06.951Z,2.30
2018-07-05T21:11:40.434Z,2.20
2018-07-05T21:14:14.054Z,2.30
2018-07-05T21:16:47.711Z,2.40
2018-07-05T21:19:21.244Z,2.37
2018-07-05T21:21:54.822Z,2.00
2018-07-05T21:24:28.495Z,2.40
2018-07-05T21:27:02.055Z,2.37
2018-07-05T21:29:35.603Z,2.10
2018-07-05T21:32:09.292Z,2.13
2018-07-05T21:34:42.987Z,1.77
2018-07-05T21:37:16.624Z,2.10
2018-07-05T21:39:50.266Z,2.00
2018-07-05T21:42:23.861Z,1.90
2018-07-05T21:44:57.459Z,1.90
2018-07-05T21:47:31.418Z,2.20
2018-07-05T21:50:05.207Z,2.37
2018-07-05T21:52:38.913Z,2.10
2018-07-05T21:55:12.452Z,2.20
2018-07-05T21:57:46.182Z,2.30
2018-07-05T22:00:19.923Z,1.90
2018-07-05T22:02:53.517Z,2.20
2018-07-05T22:05:27.223Z,2.23
2018-07-05T22:08:00.782Z,1.97
2018-07-05T22:10:34.381Z,1.93
2018-07-05T22:13:07.896Z,2.00
2018-07-05T22:15:41.491Z,2.13
2018-07-05T22:18:20.607Z,2.33
2018-07-05T22:20:59.839Z,2.30
2018-07-05T22:23:39.085Z,1.90
2018-07-05T22:26:18.198Z,2.30
2018-07-05T22:28:57.344Z,1.93
2018-07-05T22:31:31.008Z,2.20
2018-07-05T22:34:04.590Z,2.23
2018-07-05T22:36:38.288Z,2.23
2018-07-05T22:39:11.948Z,2.13
2018-07-05T22:41:45.692Z,2.13
2018-07-05T22:44:19.261Z,2.20
2018-07-05T22:46:52.864Z,2.30
2018-07-05T22:49:26.547Z,2.23
2018-07-05T22:52:00.183Z,2.17
2018-07-05T22:54:33.867Z,2.20
2018-07-05T22:57:07.516Z,2.07
2018-07-05T22:59:41.083Z,2.30
2018-07-05T23:02:18.092Z,2.20
2018-07-05T23:04:54.183Z,2.20
2018-07-05T23:07:31.039Z,2.40
2018-07-05T23:10:06.436Z,2.20
2018-07-05T23:12:42.587Z,2.40
2018-07-05T23:15:19.261Z,2.50
2018-07-05T23:17:55.993Z,2.53
2018-07-05T23:20:32.842Z,2.30
2018-07-05T23:23:09.558Z,2.50
2018-07-05T23:25:45.846Z,2.40
2018-07-05T23:28:22.893Z,2.20
2018-07-05T23:30:58.209Z,2.60
2018-07-05T23:33:35.132Z,2.33
2018-07-05T23:36:11.612Z,2.50
2018-07-05T23:38:48.181Z,2.53
2018-07-05T23:41:25.354Z,2.37
2018-07-05T23:44:02.170Z,2.40
2018-07-05T23:46:38.973Z,2.67
2018-07-05T23:49:16.617Z,2.77
2018-07-05T23:51:53.079Z,2.77
2018-07-05T23:54:29.934Z,2.50
2018-07-05T23:57:06.348Z,2.70
2018-07-05T23:59:42.444Z,2.70
